createdAt,value
2022-10-15T00:01:26.154Z,100105.37
2022-10-15T00:03:53.944Z,100101.81
2022-10-15T00:06:21.764Z,100102.78
2022-10-15T00:08:49.412Z,100104.53
2022-10-15T00:11:22.512Z,100105.41
2022-10-15T00:13:50.750Z,100102.78
2022-10-15T00:16:20.594Z,100095.03
2022-10-15T00:18:48.630Z,100092.31
2022-10-15T00:21:18.007Z,100106.28
2022-10-15T00:23:46.680Z,100097.53
2022-10-15T00:26:16.910Z,100100.16
2022-10-15T00:28:44.358Z,100100.16
2022-10-15T00:31:14.215Z,100097.53
2022-10-15T00:33:41.860Z,100098.47
2022-10-15T00:36:13.104Z,100095.81
2022-10-15T00:38:41.053Z,100079.31
2022-10-15T00:41:13.057Z,100088.94
2022-10-15T00:43:43.352Z,100092.47
2022-10-15T00:46:40.464Z,100088.94
2022-10-15T00:49:24.928Z,100081.97
2022-10-15T00:52:08.382Z,100074.13
2022-10-15T00:54:53.511Z,100074.22
2022-10-15T00:57:20.823Z,100077.63
2022-10-15T00:59:51.169Z,100066.28
2022-10-15T01:02:19.656Z,100072.41
2022-10-15T01:04:47.898Z,100068.94
2022-10-15T01:09:44.768Z,100063.81
2022-10-15T01:12:20.434Z,100069.91
2022-10-15T01:14:59.608Z,100060.31
2022-10-15T01:17:47.683Z,100060.31
2022-10-15T01:20:38.127Z,100064.63
2022-10-15T01:23:19.323Z,100069.94
2022-10-15T01:26:09.024Z,100062.09
2022-10-15T01:28:43.242Z,100060.38
2022-10-15T01:31:37.145Z,100060.34
2022-10-15T01:34:09.255Z,100059.56
2022-10-15T01:36:49.873Z,100052.53
2022-10-15T01:39:33.569Z,100049.94
2022-10-15T01:42:04.177Z,100054.31
2022-10-15T01:44:34.954Z,100043.87
2022-10-15T01:47:19.801Z,100054.34
2022-10-15T01:49:48.940Z,100051.72
2022-10-15T01:52:23.838Z,100061.31
2022-10-15T01:54:52.995Z,100051.78
2022-10-15T01:57:22.656Z,100043.94
2022-10-15T01:59:52.316Z,100043.06
2022-10-15T02:02:21.271Z,100055.22
2022-10-15T02:04:49.045Z,100046.63
2022-10-15T02:07:27.466Z,100051.78
2022-10-15T02:10:02.288Z,100057.87
2022-10-15T02:12:45.231Z,100056.12
2022-10-15T02:15:19.247Z,100056.97
2022-10-15T02:18:05.708Z,100054.41
2022-10-15T02:20:42.099Z,100057.06
2022-10-15T02:23:17.270Z,100060.53
2022-10-15T02:25:45.511Z,100054.41
2022-10-15T02:28:14.669Z,100063.97
2022-10-15T02:30:42.568Z,100056.19
2022-10-15T02:33:11.663Z,100052.78
2022-10-15T02:35:40.799Z,100049.25
2022-10-15T02:38:11.001Z,100030.13
2022-10-15T02:40:39.489Z,100033.59
2022-10-15T02:43:10.022Z,100032.75
2022-10-15T02:45:38.197Z,100030.13
2022-10-15T02:48:07.528Z,100027.53
2022-10-15T02:50:35.085Z,100038.84
2022-10-15T02:53:02.678Z,100041.53
2022-10-15T02:55:30.352Z,100038.03
2022-10-15T02:57:58.444Z,100032.81
2022-10-15T03:00:25.871Z,100026.72
2022-10-15T03:02:53.808Z,100031.09
2022-10-15T03:05:21.334Z,100023.25
2022-10-15T03:07:48.832Z,100032.00
2022-10-15T03:10:16.512Z,100024.19
2022-10-15T03:12:44.102Z,100015.50
2022-10-15T03:15:12.033Z,100024.25
2022-10-15T03:17:39.969Z,100025.03
2022-10-15T03:20:07.579Z,100017.16
2022-10-15T03:22:36.087Z,100027.59
2022-10-15T03:25:04.592Z,100022.31
2022-10-15T03:27:31.988Z,100016.97
2022-10-15T03:29:59.435Z,100009.19
2022-10-15T03:32:28.038Z,100028.25
2022-10-15T03:34:55.436Z,100024.69
2022-10-15T03:37:23.413Z,100027.31
2022-10-15T03:39:51.362Z,100026.47
2022-10-15T03:42:18.798Z,100032.53
2022-10-15T03:44:46.716Z,100037.75
2022-10-15T03:47:14.531Z,100031.75
2022-10-15T03:49:42.368Z,100028.25
2022-10-15T03:52:09.808Z,100027.34
2022-10-15T03:57:05.490Z,100035.16
2022-10-15T03:59:33.174Z,100028.25
2022-10-15T04:02:01.173Z,100026.47
2022-10-15T04:04:29.008Z,100030.84
2022-10-15T04:06:56.854Z,100027.41
2022-10-15T04:09:24.802Z,100018.62
2022-10-15T04:11:52.403Z,100012.59
2022-10-15T04:14:20.219Z,100017.78
2022-10-15T04:16:47.566Z,100015.22
2022-10-15T04:19:15.981Z,100010.84
2022-10-15T04:21:46.599Z,100015.25
2022-10-15T04:24:16.187Z,100017.00
2022-10-15T04:26:43.844Z,100014.44
2022-10-15T04:29:11.295Z,100021.50
2022-10-15T04:31:38.720Z,100027.50
2022-10-15T04:34:06.456Z,100025.84
2022-10-15T04:36:34.129Z,100028.47
2022-10-15T04:39:03.771Z,100032.81
2022-10-15T04:41:32.933Z,100033.72
2022-10-15T04:44:00.749Z,100037.16
2022-10-15T04:46:28.161Z,100032.84
2022-10-15T04:48:58.827Z,100039.00
2022-10-15T04:51:26.890Z,100023.31
2022-10-15T04:53:58.270Z,100026.81
2022-10-15T04:56:25.910Z,100020.72
2022-10-15T04:58:53.310Z,100025.94
2022-10-15T05:01:21.289Z,100032.03
2022-10-15T05:03:49.453Z,100025.94
2022-10-15T05:06:21.621Z,100041.63
2022-10-15T05:08:50.191Z,100037.28
2022-10-15T05:11:26.196Z,100033.78
2022-10-15T05:13:57.985Z,100028.59
2022-10-15T05:16:27.878Z,100035.53
2022-10-15T05:19:02.070Z,100037.31
2022-10-15T05:21:31.469Z,100035.56
2022-10-15T05:24:00.965Z,100039.06
2022-10-15T05:26:30.268Z,100043.41
2022-10-15T05:28:59.097Z,100044.25
2022-10-15T05:31:29.302Z,100042.47
2022-10-15T05:33:59.283Z,100039.88
2022-10-15T05:36:30.728Z,100035.50
2022-10-15T05:39:00.263Z,100030.31
2022-10-15T05:41:29.722Z,100030.25
2022-10-15T05:43:58.513Z,100021.56
2022-10-15T05:46:26.105Z,100026.72
2022-10-15T05:48:56.124Z,100033.63
2022-10-15T05:51:24.574Z,100027.56
2022-10-15T05:53:56.754Z,100029.25
2022-10-15T05:56:25.152Z,100037.97
2022-10-15T05:58:52.759Z,100036.16
2022-10-15T06:01:22.506Z,100033.56
2022-10-15T06:03:52.082Z,100030.94
2022-10-15T06:06:25.003Z,100039.66
2022-10-15T06:08:53.916Z,100042.12
2022-10-15T06:11:21.672Z,100045.47
2022-10-15T06:13:48.971Z,100049.47
2022-10-15T06:16:21.080Z,100059.78
2022-10-15T06:18:54.150Z,100061.25
2022-10-15T06:21:21.755Z,100058.53
2022-10-15T06:23:49.063Z,100069.75
2022-10-15T06:26:16.385Z,100067.72
2022-10-15T06:28:45.715Z,100068.34
2022-10-15T06:31:13.065Z,100075.09
2022-10-15T06:33:40.349Z,100075.06
2022-10-15T06:36:10.735Z,100072.16
2022-10-15T06:38:39.386Z,100077.09
2022-10-15T06:41:07.593Z,100075.16
2022-10-15T06:43:35.785Z,100074.00
2022-10-15T06:46:05.165Z,100072.62
2022-10-15T06:48:32.826Z,100078.72
2022-10-15T06:51:01.270Z,100078.72
2022-10-15T06:53:29.342Z,100076.09
2022-10-15T06:56:00.751Z,100080.25
2022-10-15T06:58:28.913Z,100086.12
2022-10-15T07:01:05.981Z,100089.50
2022-10-15T07:03:34.448Z,100091.94
2022-10-15T07:06:04.481Z,100097.00
2022-10-15T07:08:32.216Z,100095.19
2022-10-15T07:11:04.422Z,100103.50
2022-10-15T07:13:31.998Z,100094.06
2022-10-15T07:16:09.741Z,100104.06
2022-10-15T07:18:37.644Z,100093.22
2022-10-15T07:21:06.864Z,100095.81
2022-10-15T07:23:34.419Z,100093.19
2022-10-15T07:26:01.765Z,100085.88
2022-10-15T07:28:29.533Z,100088.94
2022-10-15T07:31:03.924Z,100083.63
2022-10-15T07:33:34.292Z,100084.06
2022-10-15T07:36:06.716Z,100069.97
2022-10-15T07:38:34.891Z,100074.13
2022-10-15T07:41:03.459Z,100080.19
2022-10-15T07:43:33.411Z,100078.91
2022-10-15T07:46:01.600Z,100078.88
2022-10-15T07:48:29.309Z,100081.37
2022-10-15T07:51:01.628Z,100082.13
2022-10-15T07:53:29.266Z,100090.69
2022-10-15T07:56:01.262Z,100086.03
2022-10-15T07:58:30.959Z,100076.94
2022-10-15T08:01:02.588Z,100085.69
2022-10-15T08:03:30.708Z,100090.00
2022-10-15T08:06:02.157Z,100099.84
2022-10-15T08:08:29.916Z,100096.94
2022-10-15T08:10:57.571Z,100095.41
2022-10-15T08:13:24.991Z,100107.75
2022-10-15T08:15:57.797Z,100103.56
2022-10-15T08:18:27.551Z,100101.53
2022-10-15T08:20:55.017Z,100096.94
2022-10-15T08:23:22.307Z,100096.75
2022-10-15T08:25:49.753Z,100108.00
2022-10-15T08:28:17.352Z,100097.78
2022-10-15T08:30:44.687Z,100100.94
2022-10-15T08:33:12.546Z,100094.72
2022-10-15T08:35:43.859Z,100097.13
2022-10-15T08:38:14.757Z,100104.47
2022-10-15T08:40:56.640Z,100107.12
2022-10-15T08:43:37.857Z,100095.31
2022-10-15T08:46:12.566Z,100105.03
2022-10-15T08:48:46.295Z,100105.66
2022-10-15T08:51:19.154Z,100102.38
2022-10-15T08:53:50.807Z,100104.16
2022-10-15T08:56:24.857Z,100093.81
2022-10-15T08:59:20.871Z,100093.56
2022-10-15T09:01:55.059Z,100095.78
2022-10-15T09:04:50.525Z,100099.62
2022-10-15T09:07:26.659Z,100091.84
2022-10-15T09:10:02.189Z,100084.13
2022-10-15T09:12:53.716Z,100095.72
2022-10-15T09:15:24.045Z,100102.03
2022-10-15T09:17:54.987Z,100111.31
2022-10-15T09:20:26.752Z,100118.81
2022-10-15T09:22:54.585Z,100117.12
2022-10-15T09:25:25.586Z,100125.78
2022-10-15T09:27:55.236Z,100124.06
2022-10-15T09:30:43.382Z,100123.88
2022-10-15T09:33:22.366Z,100127.25
2022-10-15T09:35:56.651Z,100124.34
2022-10-15T09:38:58.053Z,100121.13
2022-10-15T09:41:35.931Z,100117.00
2022-10-15T09:44:07.249Z,100109.16
2022-10-15T09:46:45.504Z,100110.41
2022-10-15T09:49:19.090Z,100110.66
2022-10-15T09:52:00.411Z,100106.66
2022-10-15T09:54:55.361Z,100099.22
2022-10-15T09:57:23.781Z,100101.06
2022-10-15T10:00:02.348Z,100102.19
2022-10-15T10:02:39.537Z,100105.03
2022-10-15T10:05:30.222Z,100093.22
2022-10-15T10:08:15.810Z,100107.94
2022-10-15T10:10:46.060Z,100111.00
2022-10-15T10:13:26.074Z,100093.91
2022-10-15T10:15:58.354Z,100091.94
2022-10-15T10:18:27.048Z,100090.56
2022-10-15T10:21:01.614Z,100092.81
2022-10-15T10:23:38.038Z,100095.69
2022-10-15T10:26:10.632Z,100098.97
2022-10-15T10:28:46.518Z,100089.62
2022-10-15T10:31:14.147Z,100089.19
2022-10-15T10:33:50.510Z,100087.53
2022-10-15T10:36:25.984Z,100089.41
2022-10-15T10:39:14.659Z,100083.41
2022-10-15T10:41:57.991Z,100068.59
2022-10-15T10:44:28.180Z,100077.50
2022-10-15T10:47:08.022Z,100073.88
2022-10-15T10:49:41.224Z,100058.47
2022-10-15T10:52:31.852Z,100060.13
2022-10-15T10:55:01.056Z,100063.69
2022-10-15T10:57:50.779Z,100065.06
2022-10-15T11:00:21.531Z,100060.38
2022-10-15T11:02:49.876Z,100061.69
2022-10-15T11:05:22.655Z,100061.16
2022-10-15T11:07:56.525Z,100054.47
2022-10-15T11:10:43.863Z,100051.06
2022-10-15T11:13:30.404Z,100055.88
2022-10-15T11:16:05.887Z,100055.25
2022-10-15T11:18:37.794Z,100047.50
2022-10-15T11:21:26.553Z,100042.03
2022-10-15T11:24:03.622Z,100035.06
2022-10-15T11:26:41.632Z,100032.53
2022-10-15T11:29:21.254Z,100020.81
2022-10-15T11:32:14.554Z,100013.06
2022-10-15T11:35:51.548Z,100013.50
2022-10-15T11:38:31.238Z,100011.81
2022-10-15T11:41:14.854Z,100006.03
2022-10-15T11:44:08.257Z,100000.09
2022-10-15T11:46:59.058Z,100011.13
2022-10-15T11:49:56.381Z,99998.25
2022-10-15T11:52:39.100Z,100004.00
2022-10-15T11:55:14.543Z,99999.03
2022-10-15T11:57:42.699Z,99999.66
2022-10-15T12:00:25.219Z,100007.47
2022-10-15T12:02:54.339Z,100008.38
2022-10-15T12:05:30.026Z,100010.22
2022-10-15T12:07:57.872Z,100003.09
2022-10-15T12:10:47.895Z,99992.25
2022-10-15T12:13:20.922Z,99982.56
2022-10-15T12:15:57.704Z,99981.59
2022-10-15T12:18:25.217Z,99983.56
2022-10-15T12:20:55.307Z,99980.78
2022-10-15T12:23:25.784Z,99980.03
2022-10-15T12:25:54.748Z,99977.94
2022-10-15T12:28:27.506Z,99980.88
2022-10-15T12:30:57.399Z,99980.56
2022-10-15T12:33:29.808Z,99985.53
2022-10-15T12:36:00.093Z,99979.09
2022-10-15T12:38:30.948Z,99981.88
2022-10-15T12:41:10.062Z,99977.94
2022-10-15T12:43:43.991Z,99979.63
2022-10-15T12:46:12.046Z,99982.03
2022-10-15T12:48:44.704Z,99970.47
2022-10-15T12:51:21.252Z,99969.22
2022-10-15T12:53:49.736Z,99968.00
2022-10-15T12:56:17.174Z,99965.28
2022-10-15T12:58:52.032Z,99964.72
2022-10-15T13:01:19.514Z,99968.47
2022-10-15T13:03:52.780Z,99964.91
2022-10-15T13:06:20.471Z,99964.41
2022-10-15T13:08:49.161Z,99967.38
2022-10-15T13:11:22.502Z,99969.50
2022-10-15T13:13:54.249Z,99975.97
2022-10-15T13:16:22.533Z,99974.91
2022-10-15T13:18:52.360Z,99975.22
2022-10-15T13:21:19.673Z,99976.16
2022-10-15T13:23:49.641Z,99973.13
2022-10-15T13:26:20.492Z,99971.72
2022-10-15T13:28:49.964Z,99971.91
2022-10-15T13:31:36.843Z,99969.22
2022-10-15T13:34:16.085Z,99968.47
2022-10-15T13:36:45.293Z,99965.75
2022-10-15T13:39:28.645Z,99973.19
2022-10-15T13:42:07.438Z,99974.25
2022-10-15T13:44:35.456Z,99971.22
2022-10-15T13:47:03.656Z,99970.69
2022-10-15T13:49:31.229Z,99971.59
2022-10-15T13:51:58.562Z,99975.22
2022-10-15T13:54:30.149Z,99982.25
2022-10-15T13:57:01.993Z,99972.34
2022-10-15T13:59:30.203Z,99984.47
2022-10-15T14:02:01.223Z,99974.72
2022-10-15T14:04:30.731Z,99979.59
2022-10-15T14:07:03.931Z,99976.81
2022-10-15T14:09:34.188Z,99973.09
2022-10-15T14:12:04.187Z,99970.56
2022-10-15T14:14:35.375Z,99966.34
2022-10-15T14:17:08.891Z,99972.78
2022-10-15T14:19:38.608Z,99972.09
2022-10-15T14:22:06.355Z,99966.81
2022-10-15T14:24:39.007Z,99964.91
2022-10-15T14:27:22.004Z,99964.00
2022-10-15T14:29:51.728Z,99967.88
2022-10-15T14:32:22.481Z,99969.69
2022-10-15T14:34:51.568Z,99960.97
2022-10-15T14:37:40.223Z,99957.78
2022-10-15T14:40:13.277Z,99959.66
2022-10-15T14:43:03.956Z,99950.69
2022-10-15T14:45:55.424Z,99943.06
2022-10-15T14:48:24.467Z,99951.25
2022-10-15T14:50:52.032Z,99955.44
2022-10-15T14:53:23.776Z,99964.06
2022-10-15T14:56:02.815Z,99956.16
2022-10-15T14:58:30.440Z,99967.22
2022-10-15T15:01:03.238Z,99962.25
2022-10-15T15:03:38.616Z,99960.41
2022-10-15T15:06:06.841Z,99964.94
2022-10-15T15:08:34.177Z,99967.53
2022-10-15T15:11:04.437Z,99968.56
2022-10-15T15:13:38.505Z,99964.59
2022-10-15T15:16:06.448Z,99965.28
2022-10-15T15:18:34.093Z,99978.50
2022-10-15T15:21:04.450Z,99976.94
2022-10-15T15:23:32.118Z,99979.47
2022-10-15T15:25:59.980Z,99976.84
2022-10-15T15:28:29.285Z,99982.50
2022-10-15T15:31:00.352Z,99980.03
2022-10-15T15:33:28.388Z,99979.13
2022-10-15T15:36:01.319Z,99986.97
2022-10-15T15:38:31.276Z,99987.34
2022-10-15T15:41:21.532Z,99990.56
2022-10-15T15:43:49.410Z,99991.94
2022-10-15T15:46:16.837Z,99991.16
2022-10-15T15:48:44.151Z,99994.78
2022-10-15T15:51:25.724Z,99992.34
2022-10-15T15:53:53.578Z,99989.75
2022-10-15T15:56:21.575Z,99999.41
2022-10-15T15:58:50.282Z,99995.13
2022-10-15T16:01:18.785Z,100000.47
2022-10-15T16:03:46.906Z,99998.97
2022-10-15T16:06:14.378Z,100000.75
2022-10-15T16:08:41.673Z,100005.88
2022-10-15T16:11:09.279Z,100006.94
2022-10-15T16:13:36.545Z,100008.59
2022-10-15T16:16:03.927Z,100007.16
2022-10-15T16:18:31.470Z,100008.22
2022-10-15T16:20:58.965Z,100013.50
2022-10-15T16:23:26.365Z,100010.84
2022-10-15T16:25:54.935Z,100015.41
2022-10-15T16:28:22.311Z,100020.78
2022-10-15T16:30:49.822Z,100021.00
2022-10-15T16:33:17.756Z,100022.12
2022-10-15T16:35:51.228Z,100029.81
2022-10-15T16:38:18.779Z,100037.94
2022-10-15T16:40:47.339Z,100038.22
2022-10-15T16:43:14.687Z,100043.56
2022-10-15T16:45:42.294Z,100048.78
2022-10-15T16:48:09.629Z,100044.47
2022-10-15T16:50:36.894Z,100056.69
2022-10-15T16:53:04.547Z,100055.72
2022-10-15T16:55:32.340Z,100062.81
2022-10-15T16:57:59.644Z,100057.63
2022-10-15T17:00:27.347Z,100064.66
2022-10-15T17:02:55.115Z,100066.56
2022-10-15T17:05:22.938Z,100074.50
2022-10-15T17:07:50.715Z,100068.28
2022-10-15T17:10:19.124Z,100079.78
2022-10-15T17:12:46.885Z,100079.75
2022-10-15T17:15:14.485Z,100084.19
2022-10-15T17:17:43.374Z,100078.97
2022-10-15T17:20:11.519Z,100086.12
2022-10-15T17:22:39.137Z,100093.03
2022-10-15T17:25:06.640Z,100086.94
2022-10-15T17:27:35.620Z,100087.94
2022-10-15T17:30:03.496Z,100090.41
2022-10-15T17:32:30.924Z,100087.75
2022-10-15T17:35:03.488Z,100092.31
2022-10-15T17:37:32.004Z,100091.50
2022-10-15T17:39:59.921Z,100093.31
2022-10-15T17:42:27.626Z,100097.81
2022-10-15T17:44:55.506Z,100101.97
2022-10-15T17:47:23.314Z,100105.59
2022-10-15T17:49:50.860Z,100110.84
2022-10-15T17:52:18.459Z,100116.94
2022-10-15T17:54:45.958Z,100118.00
2022-10-15T17:57:13.465Z,100117.00
2022-10-15T17:59:41.010Z,100109.25
2022-10-15T18:02:10.199Z,100111.53
2022-10-15T18:04:39.823Z,100117.88
2022-10-15T18:07:07.853Z,100109.16
2022-10-15T18:09:35.990Z,100113.56
2022-10-15T18:12:03.715Z,100120.44
2022-10-15T18:14:31.933Z,100117.19
2022-10-15T18:16:59.747Z,100119.69
2022-10-15T18:19:28.101Z,100117.38
2022-10-15T18:21:56.312Z,100127.31
2022-10-15T18:24:24.188Z,100132.75
2022-10-15T18:26:51.997Z,100129.19
2022-10-15T18:29:19.747Z,100128.34
2022-10-15T18:31:47.431Z,100129.88
2022-10-15T18:34:15.011Z,100141.50
2022-10-15T18:36:43.557Z,100149.81
2022-10-15T18:39:11.703Z,100146.41
2022-10-15T18:41:40.372Z,100151.78
2022-10-15T18:44:14.677Z,100145.87
2022-10-15T18:46:44.750Z,100144.25
2022-10-15T18:49:13.367Z,100147.78
2022-10-15T18:51:40.784Z,100144.38
2022-10-15T18:54:10.857Z,100136.59
2022-10-15T18:56:39.068Z,100135.63
2022-10-15T18:59:07.159Z,100129.81
2022-10-15T19:01:36.408Z,100135.47
2022-10-15T19:04:08.926Z,100140.94
2022-10-15T19:06:39.225Z,100144.75
2022-10-15T19:09:09.068Z,100148.25
2022-10-15T19:11:37.450Z,100151.63
2022-10-15T19:14:06.676Z,100153.41
2022-10-15T19:16:35.320Z,100151.69
2022-10-15T19:19:07.382Z,100162.31
2022-10-15T19:21:35.612Z,100161.91
2022-10-15T19:24:03.021Z,100162.97
2022-10-15T19:26:30.815Z,100159.47
2022-10-15T19:28:58.647Z,100154.47
2022-10-15T19:31:28.303Z,100158.28
2022-10-15T19:33:58.062Z,100166.03
2022-10-15T19:36:31.931Z,100174.56
2022-10-15T19:39:08.176Z,100180.50
2022-10-15T19:41:37.606Z,100181.25
2022-10-15T19:44:07.850Z,100175.78
2022-10-15T19:46:36.040Z,100178.81
2022-10-15T19:49:05.076Z,100179.00
2022-10-15T19:51:32.917Z,100177.25
2022-10-15T19:54:00.463Z,100186.06
2022-10-15T19:56:30.568Z,100190.50
2022-10-15T19:59:00.564Z,100194.31
2022-10-15T20:01:28.689Z,100195.19
2022-10-15T20:04:03.371Z,100202.28
2022-10-15T20:06:34.541Z,100202.87
2022-10-15T20:09:02.199Z,100207.97
2022-10-15T20:11:29.827Z,100208.22
2022-10-15T20:13:58.991Z,100202.69
2022-10-15T20:16:28.823Z,100205.41
2022-10-15T20:19:01.428Z,100203.63
2022-10-15T20:21:29.183Z,100215.25
2022-10-15T20:23:56.481Z,100215.25
2022-10-15T20:26:23.949Z,100214.53
2022-10-15T20:28:51.571Z,100212.97
2022-10-15T20:31:21.309Z,100217.03
2022-10-15T20:33:49.306Z,100215.06
2022-10-15T20:36:22.603Z,100216.19
2022-10-15T20:38:51.446Z,100211.91
2022-10-15T20:41:19.337Z,100223.44
2022-10-15T20:43:52.773Z,100226.13
2022-10-15T20:46:24.339Z,100233.91
2022-10-15T20:48:51.730Z,100233.78
2022-10-15T20:51:20.653Z,100231.06
2022-10-15T20:53:50.040Z,100233.59
2022-10-15T20:56:17.558Z,100236.69
2022-10-15T20:58:45.393Z,100237.72
2022-10-15T21:01:13.387Z,100236.38
2022-10-15T21:03:40.750Z,100231.16
2022-10-15T21:06:08.069Z,100231.22
2022-10-15T21:08:36.240Z,100232.91
2022-10-15T21:11:04.942Z,100241.63
2022-10-15T21:13:32.292Z,100241.44
2022-10-15T21:16:05.582Z,100247.88
2022-10-15T21:18:36.871Z,100240.78
2022-10-15T21:21:08.843Z,100243.59
2022-10-15T21:23:36.982Z,100247.37
2022-10-15T21:26:05.838Z,100246.56
2022-10-15T21:28:34.004Z,100239.44
2022-10-15T21:31:12.403Z,100236.50
2022-10-15T21:33:40.320Z,100232.69
2022-10-15T21:36:22.311Z,100232.38
2022-10-15T21:39:16.418Z,100232.63
2022-10-15T21:41:43.711Z,100235.34
2022-10-15T21:44:11.252Z,100234.19
2022-10-15T21:46:41.992Z,100230.75
2022-10-15T21:49:10.108Z,100243.50
2022-10-15T21:51:38.178Z,100246.19
2022-10-15T21:54:07.199Z,100245.41
2022-10-15T21:56:34.515Z,100249.12
2022-10-15T21:59:02.267Z,100260.16
2022-10-15T22:01:31.956Z,100262.56
2022-10-15T22:04:05.475Z,100257.16
2022-10-15T22:06:33.655Z,100264.44
2022-10-15T22:09:02.210Z,100265.19
2022-10-15T22:11:31.994Z,100273.91
2022-10-15T22:14:03.454Z,100272.25
2022-10-15T22:16:34.180Z,100270.28
2022-10-15T22:19:01.812Z,100273.66
2022-10-15T22:21:31.742Z,100268.41
2022-10-15T22:24:02.672Z,100273.91
2022-10-15T22:26:33.276Z,100270.47
2022-10-15T22:29:02.261Z,100274.63
2022-10-15T22:31:30.081Z,100275.47
2022-10-15T22:33:58.492Z,100271.09
2022-10-15T22:36:30.512Z,100268.34
2022-10-15T22:39:01.779Z,100271.19
2022-10-15T22:41:34.130Z,100269.34
2022-10-15T22:44:03.076Z,100278.19
2022-10-15T22:46:38.011Z,100281.81
2022-10-15T22:49:08.548Z,100285.09
2022-10-15T22:51:36.103Z,100286.38
2022-10-15T22:54:03.502Z,100289.62
2022-10-15T22:56:31.377Z,100285.31
2022-10-15T22:58:59.321Z,100285.22
2022-10-15T23:01:29.204Z,100294.22
2022-10-15T23:04:01.914Z,100291.75
2022-10-15T23:06:30.531Z,100298.06
2022-10-15T23:08:58.686Z,100300.53
2022-10-15T23:11:28.615Z,100296.41
2022-10-15T23:14:01.616Z,100299.09
2022-10-15T23:16:37.351Z,100300.19
2022-10-15T23:19:12.623Z,100302.53
2022-10-15T23:21:58.106Z,100299.03
2022-10-15T23:24:27.215Z,100301.56
2022-10-15T23:26:55.188Z,100304.13
2022-10-15T23:29:24.581Z,100317.34
2022-10-15T23:31:53.066Z,100311.19
2022-10-15T23:34:25.583Z,100312.16
2022-10-15T23:36:53.740Z,100317.38
2022-10-15T23:39:26.382Z,100314.72
2022-10-15T23:41:54.872Z,100318.03
2022-10-15T23:44:25.628Z,100316.59
2022-10-15T23:46:53.203Z,100314.91
2022-10-15T23:49:20.810Z,100320.25
2022-10-15T23:51:48.362Z,100329.00
2022-10-15T23:54:17.753Z,100327.38
2022-10-15T23:56:45.923Z,100327.31
2022-10-15T23:59:13.974Z,100328.31
